createdAt,value
2022-12-02T00:01:00.573Z,88.35
2022-12-02T00:03:29.982Z,88.61
2022-12-02T00:05:57.568Z,89.35
2022-12-02T00:08:28.942Z,87.47
2022-12-02T00:10:58.458Z,88.72
2022-12-02T00:13:28.976Z,90.06
2022-12-02T00:16:01.780Z,90.03
2022-12-02T00:18:29.965Z,91.15
2022-12-02T00:20:57.799Z,90.51
2022-12-02T00:23:25.348Z,90.68
2022-12-02T00:25:54.805Z,90.49
2022-12-02T00:28:22.417Z,90.74
2022-12-02T00:30:50.016Z,89.68
2022-12-02T00:33:19.288Z,89.18
2022-12-02T00:35:47.111Z,89.57
2022-12-02T00:38:14.871Z,88.73
2022-12-02T00:40:42.419Z,89.57
2022-12-02T00:43:28.303Z,89.81
2022-12-02T00:46:14.303Z,89.39
2022-12-02T00:48:41.844Z,89.20
2022-12-02T00:51:09.570Z,89.57
2022-12-02T00:53:37.027Z,89.36
2022-12-02T00:56:04.730Z,89.56
2022-12-02T00:58:32.267Z,90.54
2022-12-02T01:00:59.787Z,90.28
2022-12-02T01:03:27.259Z,90.41
2022-12-02T01:05:54.768Z,91.02
2022-12-02T01:08:25.453Z,91.15
2022-12-02T01:10:57.500Z,91.36
2022-12-02T01:13:27.068Z,91.64
2022-12-02T01:15:55.348Z,92.33
2022-12-02T01:18:22.907Z,91.76
2022-12-02T01:20:50.528Z,91.59
2022-12-02T01:23:18.328Z,92.45
2022-12-02T01:25:45.845Z,92.26
2022-12-02T01:28:13.332Z,93.36
2022-12-02T01:30:40.941Z,93.11
2022-12-02T01:33:08.370Z,93.96
2022-12-02T01:35:35.999Z,93.16
2022-12-02T01:38:03.879Z,92.04
2022-12-02T01:40:32.431Z,93.26
2022-12-02T01:42:59.953Z,93.57
2022-12-02T01:45:27.879Z,94.08
2022-12-02T01:47:55.475Z,93.58
2022-12-02T01:50:23.156Z,93.56
2022-12-02T01:52:56.415Z,93.05
2022-12-02T01:55:26.800Z,93.57
2022-12-02T01:57:55.705Z,94.23
2022-12-02T02:00:23.385Z,93.24
2022-12-02T02:02:50.913Z,94.47
2022-12-02T02:05:24.540Z,94.79
2022-12-02T02:07:54.276Z,94.45
2022-12-02T02:10:23.923Z,94.76
2022-12-02T02:12:52.705Z,94.95
2022-12-02T02:15:21.470Z,95.51
2022-12-02T02:17:49.188Z,95.63
2022-12-02T02:20:22.392Z,96.16
2022-12-02T02:23:07.980Z,95.19
2022-12-02T02:25:46.769Z,95.75
2022-12-02T02:28:16.568Z,95.13
2022-12-02T02:30:45.168Z,95.34
2022-12-02T02:33:15.332Z,94.83
2022-12-02T02:35:44.980Z,94.85
2022-12-02T02:38:16.068Z,95.83
2022-12-02T02:40:45.830Z,96.28
2022-12-02T02:43:16.692Z,95.67
2022-12-02T02:45:45.510Z,95.45
2022-12-02T02:48:15.752Z,95.77
2022-12-02T02:50:46.229Z,96.13
2022-12-02T02:53:17.184Z,95.57
2022-12-02T02:55:44.809Z,95.84
2022-12-02T02:58:15.544Z,94.86
2022-12-02T03:01:06.315Z,94.63
2022-12-02T03:03:39.050Z,95.47
2022-12-02T03:06:08.589Z,95.65
2022-12-02T03:08:39.286Z,95.59
2022-12-02T03:11:07.115Z,94.63
2022-12-02T03:13:37.698Z,94.12
2022-12-02T03:16:09.200Z,95.04
2022-12-02T03:18:38.501Z,94.86
2022-12-02T03:21:06.598Z,95.13
2022-12-02T03:23:35.688Z,94.73
2022-12-02T03:26:04.970Z,95.26
2022-12-02T03:28:33.117Z,94.97
2022-12-02T03:31:00.956Z,94.22
2022-12-02T03:33:29.378Z,95.70
2022-12-02T03:35:57.113Z,95.23
2022-12-02T03:38:25.381Z,95.01
2022-12-02T03:40:53.095Z,94.82
2022-12-02T03:43:20.804Z,94.85
2022-12-02T03:45:48.533Z,95.29
2022-12-02T03:48:21.744Z,95.29
2022-12-02T03:50:50.984Z,95.86
2022-12-02T03:53:19.462Z,97.57
2022-12-02T03:55:47.651Z,96.50
2022-12-02T03:58:15.428Z,97.74
2022-12-02T04:00:43.133Z,98.29
2022-12-02T04:03:10.681Z,97.08
2022-12-02T04:05:38.327Z,97.43
2022-12-02T04:08:06.018Z,97.09
2022-12-02T04:10:33.507Z,97.21
2022-12-02T04:13:00.991Z,96.09
2022-12-02T04:15:28.494Z,97.44
2022-12-02T04:17:56.041Z,96.52
2022-12-02T04:20:23.612Z,96.46
2022-12-02T04:22:51.055Z,97.44
2022-12-02T04:25:18.552Z,96.82
2022-12-02T04:27:46.151Z,97.06
2022-12-02T04:30:13.776Z,97.02
2022-12-02T04:32:41.191Z,96.60
2022-12-02T04:35:09.208Z,96.25
2022-12-02T04:37:36.608Z,96.69
2022-12-02T04:40:05.836Z,96.11
2022-12-02T04:42:33.396Z,96.13
2022-12-02T04:45:01.368Z,96.46
2022-12-02T04:47:28.879Z,98.17
2022-12-02T04:49:56.318Z,97.37
2022-12-02T04:52:23.789Z,98.07
2022-12-02T04:54:51.326Z,99.57
2022-12-02T04:57:18.896Z,98.80
2022-12-02T04:59:46.315Z,98.40
2022-12-02T05:02:13.915Z,98.55
2022-12-02T05:04:41.410Z,98.75
2022-12-02T05:07:08.945Z,98.60
2022-12-02T05:09:36.503Z,98.23
2022-12-02T05:12:04.020Z,97.29
2022-12-02T05:14:31.605Z,98.03
2022-12-02T05:16:59.126Z,96.53
2022-12-02T05:19:26.643Z,96.37
2022-12-02T05:21:54.629Z,97.29
2022-12-02T05:24:22.094Z,98.50
2022-12-02T05:26:49.709Z,97.59
2022-12-02T05:29:17.238Z,99.65
2022-12-02T05:31:44.751Z,100.00
2022-12-02T05:34:12.280Z,99.18
2022-12-02T05:36:40.128Z,100.00
2022-12-02T05:39:07.660Z,98.87
2022-12-02T05:41:35.283Z,99.62
2022-12-02T05:44:19.006Z,99.12
2022-12-02T05:46:46.682Z,99.52
2022-12-02T05:49:23.197Z,97.99
2022-12-02T05:51:57.231Z,98.36
2022-12-02T05:54:26.532Z,97.95
2022-12-02T05:56:54.175Z,97.61
2022-12-02T05:59:22.634Z,97.28
2022-12-02T06:01:58.299Z,97.59
2022-12-02T06:04:29.414Z,98.61
2022-12-02T06:07:00.651Z,99.37
2022-12-02T06:09:32.385Z,99.97
2022-12-02T06:12:02.659Z,98.67
2022-12-02T06:14:35.910Z,98.90
2022-12-02T06:17:19.218Z,98.29
2022-12-02T06:19:53.762Z,96.95
2022-12-02T06:22:30.551Z,97.96
2022-12-02T06:25:03.694Z,95.93
2022-12-02T06:27:40.180Z,95.51
2022-12-02T06:30:14.596Z,95.15
2022-12-02T06:32:45.591Z,94.90
2022-12-02T06:35:23.203Z,95.38
2022-12-02T06:37:54.725Z,93.98
2022-12-02T06:40:29.504Z,93.52
2022-12-02T06:43:02.152Z,94.53
2022-12-02T06:45:33.994Z,93.65
2022-12-02T06:48:03.862Z,93.75
2022-12-02T06:50:43.130Z,96.33
2022-12-02T06:53:25.836Z,94.92
2022-12-02T06:55:59.069Z,95.48
2022-12-02T06:58:40.091Z,96.28
2022-12-02T07:01:11.024Z,96.01
2022-12-02T07:03:43.515Z,96.86
2022-12-02T07:21:23.801Z,96.65
2022-12-02T07:24:11.091Z,96.49
2022-12-02T07:26:50.311Z,96.24
2022-12-02T07:29:30.760Z,96.62
2022-12-02T07:32:38.708Z,97.11
2022-12-02T07:35:07.628Z,95.22
2022-12-02T07:37:55.435Z,95.44
2022-12-02T07:40:51.971Z,95.29
2022-12-02T07:43:35.808Z,95.35
2022-12-02T07:46:13.081Z,94.51
2022-12-02T07:48:59.170Z,94.68
2022-12-02T07:51:49.185Z,95.65
2022-12-02T07:54:57.351Z,96.97
2022-12-02T07:58:01.224Z,97.18
2022-12-02T08:00:40.638Z,95.64
2022-12-02T08:03:24.898Z,93.75
2022-12-02T08:05:58.377Z,92.70
2022-12-02T08:08:31.320Z,93.99
2022-12-02T08:11:24.523Z,94.81
2022-12-02T08:14:28.403Z,93.82
2022-12-02T08:17:13.997Z,94.64
2022-12-02T08:19:54.513Z,99.79
2022-12-02T08:22:33.067Z,99.30
2022-12-02T08:25:23.783Z,96.12
2022-12-02T08:28:37.912Z,97.29
2022-12-02T08:31:21.523Z,95.58
2022-12-02T08:34:28.856Z,96.29
2022-12-02T08:37:32.761Z,95.29
2022-12-02T08:40:32.281Z,97.66
2022-12-02T08:43:46.320Z,95.58
2022-12-02T08:46:30.586Z,97.46
2022-12-02T08:49:28.781Z,95.62
2022-12-02T08:52:12.208Z,95.55
2022-12-02T08:54:52.485Z,96.88
2022-12-02T08:57:32.004Z,96.33
2022-12-02T09:00:02.830Z,94.93
2022-12-02T09:02:34.033Z,93.44
2022-12-02T09:05:26.895Z,97.09
2022-12-02T09:08:05.869Z,95.35
2022-12-02T09:10:34.702Z,96.39
2022-12-02T09:13:07.307Z,92.99
2022-12-02T09:16:14.253Z,93.59
2022-12-02T09:19:35.607Z,93.56
2022-12-02T09:22:14.765Z,94.46
2022-12-02T09:24:44.366Z,94.38
2022-12-02T09:27:11.879Z,93.36
2022-12-02T09:29:39.296Z,97.91
2022-12-02T09:32:06.844Z,96.46
2022-12-02T09:34:37.097Z,95.49
2022-12-02T09:37:06.326Z,93.52
2022-12-02T09:39:38.505Z,95.50
2022-12-02T09:42:08.123Z,96.00
2022-12-02T09:44:37.721Z,96.90
2022-12-02T09:47:06.275Z,99.58
2022-12-02T09:49:34.009Z,100.00
2022-12-02T09:52:04.964Z,98.63
2022-12-02T09:54:32.914Z,99.10
2022-12-02T09:57:00.381Z,98.51
2022-12-02T09:59:28.078Z,99.12
2022-12-02T10:01:58.765Z,100.00
2022-12-02T10:04:26.635Z,100.00
2022-12-02T10:06:54.180Z,100.00
2022-12-02T10:09:28.559Z,99.44
2022-12-02T10:11:56.237Z,100.00
2022-12-02T10:14:23.784Z,99.57
2022-12-02T10:16:53.533Z,100.00
2022-12-02T10:19:21.666Z,99.97
2022-12-02T10:21:55.031Z,100.00
2022-12-02T10:24:39.044Z,100.00
2022-12-02T10:27:06.575Z,100.00
2022-12-02T10:29:34.911Z,100.00
2022-12-02T10:32:18.745Z,100.00
2022-12-02T10:35:02.742Z,100.00
2022-12-02T10:37:33.803Z,100.00
2022-12-02T10:40:10.139Z,99.39
2022-12-02T10:42:37.687Z,99.54
2022-12-02T10:45:19.107Z,98.89
2022-12-02T10:47:49.590Z,96.63
2022-12-02T10:50:22.782Z,99.81
2022-12-02T10:53:00.097Z,98.97
2022-12-02T10:55:28.530Z,100.00
2022-12-02T10:57:56.052Z,99.97
2022-12-02T11:00:26.353Z,97.83
2022-12-02T11:02:58.985Z,93.87
2022-12-02T11:05:32.725Z,94.48
2022-12-02T11:08:07.575Z,92.06
2022-12-02T11:10:44.384Z,94.65
2022-12-02T11:13:14.755Z,89.94
2022-12-02T11:15:47.395Z,89.22
2022-12-02T11:18:23.647Z,88.76
2022-12-02T11:21:03.375Z,86.48
2022-12-02T11:23:32.550Z,85.82
2022-12-02T11:26:02.247Z,88.43
2022-12-02T11:28:29.662Z,87.70
2022-12-02T11:31:12.332Z,83.11
2022-12-02T11:33:54.692Z,84.68
2022-12-02T11:36:26.095Z,88.28
2022-12-02T11:38:56.545Z,82.62
2022-12-02T11:41:26.584Z,87.38
2022-12-02T11:43:59.855Z,83.77
2022-12-02T11:46:51.031Z,85.00
2022-12-02T11:49:22.709Z,86.36
2022-12-02T11:51:52.349Z,87.49
2022-12-02T11:54:19.971Z,86.88
2022-12-02T11:56:47.704Z,89.41
2022-12-02T11:59:26.880Z,84.81
2022-12-02T12:02:14.346Z,86.78
2022-12-02T12:04:45.801Z,86.54
2022-12-02T12:07:14.428Z,88.49
2022-12-02T12:09:42.205Z,83.83
2022-12-02T12:12:19.757Z,82.78
2022-12-02T12:14:59.224Z,82.79
2022-12-02T12:17:38.857Z,84.89
2022-12-02T12:20:26.355Z,85.47
2022-12-02T12:22:53.828Z,86.02
2022-12-02T12:25:40.119Z,85.67
2022-12-02T12:28:29.452Z,87.19
2022-12-02T12:30:59.503Z,85.78
2022-12-02T12:33:27.788Z,84.83
2022-12-02T12:35:56.973Z,84.38
2022-12-02T12:38:30.425Z,84.61
2022-12-02T12:40:58.892Z,85.63
2022-12-02T12:43:26.472Z,85.13
2022-12-02T12:45:54.014Z,84.15
2022-12-02T12:48:21.787Z,84.34
2022-12-02T12:50:49.401Z,83.45
2022-12-02T12:53:16.900Z,84.36
2022-12-02T12:55:44.338Z,84.38
2022-12-02T12:58:11.947Z,85.16
2022-12-02T13:00:39.474Z,85.22
2022-12-02T13:03:08.076Z,87.87
2022-12-02T13:05:35.616Z,87.33
2022-12-02T13:08:03.268Z,90.43
2022-12-02T13:10:30.673Z,85.46
2022-12-02T13:12:58.131Z,89.46
2022-12-02T13:15:25.653Z,86.71
2022-12-02T13:17:53.195Z,86.35
2022-12-02T13:20:20.966Z,89.03
2022-12-02T13:22:51.669Z,89.30
2022-12-02T13:25:19.638Z,89.94
2022-12-02T13:27:47.106Z,90.35
2022-12-02T13:30:18.099Z,90.59
2022-12-02T13:32:48.231Z,91.47
2022-12-02T13:35:22.131Z,91.41
2022-12-02T13:37:50.260Z,91.34
2022-12-02T13:40:19.716Z,87.79
2022-12-02T13:42:47.225Z,88.60
2022-12-02T13:45:14.778Z,88.08
2022-12-02T13:47:42.455Z,88.50
2022-12-02T13:50:10.345Z,87.43
2022-12-02T13:52:37.784Z,85.55
2022-12-02T13:55:05.751Z,95.00
2022-12-02T13:57:33.271Z,88.67
2022-12-02T14:00:00.725Z,88.79
2022-12-02T14:02:28.218Z,90.51
2022-12-02T14:04:55.763Z,89.48
2022-12-02T14:07:23.551Z,87.89
2022-12-02T14:09:51.114Z,86.52
2022-12-02T14:12:18.568Z,86.97
2022-12-02T14:14:46.332Z,83.44
2022-12-02T14:17:13.965Z,84.97
2022-12-02T14:19:41.367Z,84.66
2022-12-02T14:22:08.844Z,83.63
2022-12-02T14:24:36.391Z,84.86
2022-12-02T14:27:03.938Z,84.96
2022-12-02T14:29:31.696Z,84.40
2022-12-02T14:31:59.284Z,83.58
2022-12-02T14:34:26.836Z,86.33
2022-12-02T14:36:54.320Z,85.36
2022-12-02T14:39:21.887Z,86.30
2022-12-02T14:41:49.298Z,84.73
2022-12-02T14:44:16.685Z,85.33
2022-12-02T14:46:47.354Z,85.78
2022-12-02T14:52:02.703Z,86.40
2022-12-02T14:54:30.286Z,89.21
2022-12-02T14:56:57.931Z,85.97
2022-12-02T14:59:25.372Z,88.20
2022-12-02T15:01:53.007Z,88.26
2022-12-02T15:04:20.519Z,88.29
2022-12-02T15:06:48.074Z,88.42
2022-12-02T15:09:15.703Z,87.48
2022-12-02T15:11:43.362Z,88.29
2022-12-02T15:14:10.899Z,87.71
2022-12-02T15:16:38.473Z,88.46
2022-12-02T15:19:06.035Z,88.10
2022-12-02T15:21:38.577Z,88.32
2022-12-02T15:24:06.380Z,89.24
2022-12-02T15:26:33.926Z,89.93
2022-12-02T15:29:04.617Z,89.20
2022-12-02T15:31:32.260Z,91.69
2022-12-02T15:34:02.737Z,90.44
2022-12-02T15:36:30.256Z,92.33
2022-12-02T15:38:57.988Z,90.12
2022-12-02T15:41:25.646Z,94.11
2022-12-02T15:43:56.937Z,91.57
2022-12-02T15:46:34.461Z,90.93
2022-12-02T15:49:02.449Z,90.89
2022-12-02T15:51:31.984Z,90.51
2022-12-02T15:54:00.093Z,89.54
2022-12-02T15:56:29.726Z,93.83
2022-12-02T15:59:03.751Z,95.66
2022-12-02T16:01:32.272Z,91.64
2022-12-02T16:04:00.687Z,91.32
2022-12-02T16:06:30.087Z,97.49
2022-12-02T16:08:58.785Z,99.98
2022-12-02T16:11:27.687Z,100.00
2022-12-02T16:14:05.453Z,100.00
2022-12-02T16:16:39.308Z,99.64
2022-12-02T16:19:07.684Z,98.41
2022-12-02T16:21:47.751Z,100.00
2022-12-02T16:24:18.201Z,100.00
2022-12-02T16:26:55.044Z,100.00
2022-12-02T16:29:29.856Z,100.00
2022-12-02T16:31:58.816Z,100.00
2022-12-02T16:34:33.151Z,100.00
2022-12-02T16:38:04.121Z,100.00
2022-12-02T16:40:41.177Z,100.00
2022-12-02T16:43:10.487Z,100.00
2022-12-02T16:45:38.966Z,100.00
2022-12-02T16:55:33.459Z,100.00
2022-12-02T16:58:02.395Z,100.00
2022-12-02T17:00:33.485Z,100.00
2022-12-02T17:03:04.500Z,100.00
2022-12-02T17:05:39.272Z,100.00
2022-12-02T17:08:11.172Z,100.00
2022-12-02T17:10:39.021Z,100.00
2022-12-02T17:13:06.956Z,100.00
2022-12-02T17:15:34.700Z,100.00
2022-12-02T17:18:06.249Z,100.00
2022-12-02T17:20:34.036Z,100.00
2022-12-02T17:23:03.866Z,100.00
2022-12-02T17:25:31.642Z,100.00
2022-12-02T17:27:59.423Z,100.00
2022-12-02T17:30:27.023Z,100.00
2022-12-02T17:32:58.266Z,100.00
2022-12-02T17:35:25.943Z,100.00
2022-12-02T17:37:53.600Z,100.00
2022-12-02T17:40:21.239Z,100.00
2022-12-02T17:42:48.871Z,100.00
2022-12-02T17:45:34.681Z,100.00
2022-12-02T17:48:02.360Z,100.00
2022-12-02T17:50:29.913Z,100.00
2022-12-02T17:52:57.515Z,100.00
2022-12-02T17:55:25.246Z,100.00
2022-12-02T17:57:52.870Z,100.00
2022-12-02T18:00:21.786Z,100.00
2022-12-02T18:02:49.536Z,100.00
2022-12-02T18:05:17.297Z,100.00
2022-12-02T18:07:45.098Z,100.00
2022-12-02T18:10:13.462Z,100.00
2022-12-02T18:12:42.222Z,100.00
2022-12-02T18:15:14.746Z,100.00
2022-12-02T18:17:42.889Z,100.00
2022-12-02T18:20:11.331Z,100.00
2022-12-02T18:22:42.802Z,100.00
2022-12-02T18:25:10.923Z,100.00
2022-12-02T18:27:38.614Z,100.00
2022-12-02T18:30:08.971Z,100.00
2022-12-02T18:32:41.193Z,100.00
2022-12-02T19:56:35.503Z,100.00
2022-12-02T22:05:54.233Z,100.00
